createdAt,value
2019-02-25T00:00:56.132Z,50.50
2019-02-25T00:03:25.458Z,49.90
2019-02-25T00:05:52.884Z,49.70
2019-02-25T00:08:20.118Z,49.10
2019-02-25T00:10:47.562Z,48.50
2019-02-25T00:13:14.801Z,48.00
2019-02-25T00:15:42.218Z,47.70
2019-02-25T00:18:09.585Z,47.60
2019-02-25T00:20:36.999Z,48.10
2019-02-25T00:23:04.387Z,49.00
2019-02-25T00:25:31.761Z,49.10
2019-02-25T00:27:59.175Z,48.40
2019-02-25T00:30:26.606Z,47.40
2019-02-25T00:32:54.002Z,47.10
2019-02-25T00:35:21.345Z,46.90
2019-02-25T00:37:49.795Z,46.60
2019-02-25T00:40:17.207Z,46.30
2019-02-25T00:42:44.607Z,45.70
2019-02-25T00:45:11.967Z,45.80
2019-02-25T00:47:39.418Z,44.50
2019-02-25T00:50:08.652Z,43.80
2019-02-25T00:52:36.050Z,43.20
2019-02-25T00:55:04.178Z,43.00
2019-02-25T00:57:31.515Z,43.00
2019-02-25T00:59:58.800Z,43.20
2019-02-25T01:02:26.168Z,43.40
2019-02-25T01:04:53.563Z,43.70
2019-02-25T01:07:20.913Z,43.70
2019-02-25T01:09:48.523Z,43.50
2019-02-25T01:12:15.959Z,43.80
2019-02-25T01:14:43.252Z,44.00
2019-02-25T01:17:11.695Z,44.10
2019-02-25T01:19:39.244Z,44.10
2019-02-25T01:22:06.526Z,44.10
2019-02-25T01:24:33.935Z,44.30
2019-02-25T01:27:01.354Z,44.70
2019-02-25T01:29:28.793Z,45.30
2019-02-25T01:31:56.297Z,45.30
2019-02-25T01:34:23.739Z,44.90
2019-02-25T01:36:51.101Z,44.90
2019-02-25T01:39:18.541Z,45.10
2019-02-25T01:41:45.967Z,45.20
2019-02-25T01:44:13.338Z,45.10
2019-02-25T01:46:40.853Z,44.60
2019-02-25T01:49:08.298Z,45.40
2019-02-25T01:51:35.698Z,46.10
2019-02-25T01:54:03.086Z,45.90
2019-02-25T01:56:30.475Z,46.10
2019-02-25T01:58:57.985Z,46.60
2019-02-25T02:01:25.351Z,47.00
2019-02-25T02:03:52.767Z,47.30
2019-02-25T02:06:20.133Z,47.50
2019-02-25T02:08:47.595Z,47.20
2019-02-25T02:11:14.959Z,47.20
2019-02-25T02:13:42.186Z,47.10
2019-02-25T02:16:09.565Z,47.00
2019-02-25T02:18:36.963Z,47.00
2019-02-25T02:21:04.433Z,46.70
2019-02-25T02:23:31.869Z,46.50
2019-02-25T02:25:59.365Z,46.20
2019-02-25T02:28:26.852Z,46.20
2019-02-25T02:30:54.243Z,46.00
2019-02-25T02:33:21.627Z,46.20
2019-02-25T02:35:49.054Z,46.20
2019-02-25T02:38:16.499Z,46.20
2019-02-25T02:40:44.035Z,46.20
2019-02-25T02:43:11.508Z,46.10
2019-02-25T02:45:46.225Z,46.20
2019-02-25T02:48:38.796Z,46.00
2019-02-25T02:51:06.203Z,46.40
2019-02-25T02:53:33.618Z,46.70
2019-02-25T02:56:00.970Z,46.70
2019-02-25T02:58:28.465Z,46.90
2019-02-25T03:00:56.891Z,46.90
2019-02-25T03:03:24.182Z,47.20
2019-02-25T03:05:51.498Z,47.20
2019-02-25T03:08:18.899Z,47.20
2019-02-25T03:10:46.169Z,47.60
2019-02-25T03:13:13.579Z,48.20
2019-02-25T03:15:41.039Z,48.80
2019-02-25T03:18:08.384Z,49.20
2019-02-25T03:20:35.807Z,50.00
2019-02-25T03:23:03.193Z,50.40
2019-02-25T03:25:30.586Z,50.70
2019-02-25T03:27:57.977Z,50.90
2019-02-25T03:30:25.350Z,51.20
2019-02-25T03:32:52.872Z,51.70
2019-02-25T03:35:20.427Z,52.20
2019-02-25T03:37:47.818Z,52.40
2019-02-25T03:40:16.829Z,52.70
2019-02-25T03:42:44.283Z,52.60
2019-02-25T03:45:13.128Z,52.70
2019-02-25T03:47:40.547Z,53.20
2019-02-25T03:50:07.892Z,53.60
2019-02-25T03:52:35.303Z,53.70
2019-02-25T03:55:03.373Z,54.10
2019-02-25T03:57:30.769Z,54.50
2019-02-25T03:59:58.085Z,54.80
2019-02-25T04:02:25.467Z,55.00
2019-02-25T04:04:52.832Z,55.40
2019-02-25T04:07:20.178Z,55.60
2019-02-25T04:09:47.510Z,56.10
2019-02-25T04:12:14.999Z,56.40
2019-02-25T04:14:42.422Z,56.40
2019-02-25T04:17:09.855Z,56.70
2019-02-25T04:19:37.233Z,57.10
2019-02-25T04:22:04.692Z,56.90
2019-02-25T04:24:32.074Z,56.80
2019-02-25T04:26:59.518Z,56.70
2019-02-25T04:29:26.783Z,56.30
2019-02-25T04:31:54.200Z,56.00
2019-02-25T04:34:21.569Z,56.50
2019-02-25T04:36:48.922Z,56.70
2019-02-25T04:39:16.362Z,56.90
2019-02-25T04:41:43.801Z,57.00
2019-02-25T04:44:11.179Z,57.30
2019-02-25T04:46:38.592Z,57.70
2019-02-25T04:49:06.021Z,58.20
2019-02-25T04:51:33.347Z,58.80
2019-02-25T04:54:00.763Z,58.90
2019-02-25T04:56:28.129Z,58.70
2019-02-25T04:58:55.584Z,59.10
2019-02-25T05:01:22.875Z,59.00
2019-02-25T05:03:50.216Z,59.20
2019-02-25T05:06:17.629Z,59.30
2019-02-25T05:08:44.961Z,59.50
2019-02-25T05:11:12.381Z,59.40
2019-02-25T05:13:39.829Z,59.40
2019-02-25T05:16:07.178Z,59.70
2019-02-25T05:18:34.583Z,60.00
2019-02-25T05:21:01.966Z,60.10
2019-02-25T05:23:29.244Z,60.60
2019-02-25T05:25:56.645Z,61.10
2019-02-25T05:28:24.058Z,61.60
2019-02-25T05:30:51.553Z,60.90
2019-02-25T05:33:18.947Z,60.60
2019-02-25T05:35:46.479Z,60.20
2019-02-25T05:38:13.852Z,59.30
2019-02-25T05:40:41.243Z,58.90
2019-02-25T05:43:08.755Z,58.60
2019-02-25T05:45:36.220Z,58.60
2019-02-25T05:48:03.547Z,58.70
2019-02-25T05:50:30.875Z,59.20
2019-02-25T05:52:58.252Z,59.70
2019-02-25T05:55:25.615Z,60.10
2019-02-25T05:57:52.999Z,60.20
2019-02-25T06:00:22.517Z,60.00
2019-02-25T06:02:49.932Z,60.20
2019-02-25T06:05:17.369Z,60.30
2019-02-25T06:07:44.699Z,60.60
2019-02-25T06:10:12.232Z,61.20
2019-02-25T06:12:40.683Z,61.00
2019-02-25T06:15:08.911Z,61.10
2019-02-25T06:17:36.293Z,61.00
2019-02-25T06:20:04.641Z,61.30
2019-02-25T06:22:31.925Z,62.20
2019-02-25T06:24:59.306Z,62.60
2019-02-25T06:27:30.631Z,63.40
2019-02-25T06:29:55.787Z,63.90
2019-02-25T06:32:23.142Z,64.20
2019-02-25T06:34:50.502Z,64.20
2019-02-25T06:37:17.806Z,64.20
2019-02-25T06:39:45.210Z,64.20
2019-02-25T06:42:12.534Z,64.60
2019-02-25T06:44:40.006Z,64.90
2019-02-25T06:47:07.325Z,65.00
2019-02-25T06:49:34.634Z,64.70
2019-02-25T06:52:01.985Z,65.00
2019-02-25T06:54:29.393Z,65.30
2019-02-25T06:56:56.726Z,65.60
2019-02-25T06:59:25.367Z,65.60
2019-02-25T07:01:52.817Z,65.60
2019-02-25T07:04:31.129Z,65.70
2019-02-25T07:07:17.999Z,65.80
2019-02-25T07:09:59.754Z,65.80
2019-02-25T07:12:38.512Z,66.10
2019-02-25T07:15:25.787Z,67.00
2019-02-25T07:18:21.808Z,66.00
2019-02-25T07:20:59.090Z,66.20
2019-02-25T07:23:44.636Z,66.20
2019-02-25T07:26:22.468Z,66.00
2019-02-25T07:29:15.129Z,65.70
2019-02-25T07:32:09.193Z,65.40
2019-02-25T07:35:14.086Z,64.90
2019-02-25T07:37:59.881Z,64.30
2019-02-25T07:40:41.130Z,63.80
2019-02-25T07:43:26.235Z,63.20
2019-02-25T07:46:03.474Z,62.50
2019-02-25T07:48:42.526Z,61.50
2019-02-25T07:51:39.475Z,61.00
2019-02-25T07:54:13.068Z,60.60
2019-02-25T07:56:57.556Z,60.20
2019-02-25T07:59:42.633Z,59.80
2019-02-25T08:02:29.679Z,59.30
2019-02-25T08:05:03.650Z,58.80
2019-02-25T08:07:49.679Z,58.20
2019-02-25T08:10:32.742Z,57.70
2019-02-25T08:13:20.167Z,57.10
2019-02-25T08:16:03.174Z,56.60
2019-02-25T08:18:43.380Z,55.90
2019-02-25T08:21:23.219Z,55.20
2019-02-25T08:24:11.049Z,54.50
2019-02-25T08:26:49.642Z,54.20
2019-02-25T08:33:06.108Z,53.10
2019-02-25T08:36:47.078Z,52.30
2019-02-25T08:39:21.722Z,51.10
2019-02-25T08:41:57.818Z,49.90
2019-02-25T08:44:33.763Z,49.90
2019-02-25T08:47:10.172Z,49.30
2019-02-25T08:49:46.373Z,48.80
2019-02-25T08:52:14.041Z,48.10
2019-02-25T08:54:41.423Z,47.00
2019-02-25T08:57:08.861Z,46.40
2019-02-25T08:59:36.352Z,45.60
2019-02-25T09:02:03.924Z,45.10
2019-02-25T09:04:32.513Z,44.00
2019-02-25T09:06:59.930Z,42.70
2019-02-25T09:09:27.411Z,42.00
2019-02-25T09:11:54.802Z,41.80
2019-02-25T09:14:22.114Z,41.20
2019-02-25T09:16:50.618Z,40.50
2019-02-25T09:19:18.041Z,40.70
2019-02-25T09:21:45.531Z,40.60
2019-02-25T09:24:13.002Z,40.10
2019-02-25T09:26:40.474Z,39.30
2019-02-25T09:29:09.234Z,39.60
2019-02-25T09:31:36.648Z,38.90
2019-02-25T09:34:04.115Z,40.00
2019-02-25T09:36:31.576Z,37.90
2019-02-25T09:38:58.954Z,37.10
2019-02-25T09:41:29.821Z,36.60
2019-02-25T09:43:55.611Z,35.10
2019-02-25T09:46:22.983Z,33.90
2019-02-25T09:48:50.423Z,33.40
2019-02-25T09:51:17.681Z,33.70
2019-02-25T09:53:45.087Z,33.00
2019-02-25T09:56:12.612Z,32.10
2019-02-25T09:58:40.001Z,31.70
2019-02-25T10:01:08.118Z,31.70
2019-02-25T10:03:35.551Z,31.40
2019-02-25T10:06:02.930Z,30.80
2019-02-25T10:08:30.231Z,30.90
2019-02-25T10:10:57.632Z,30.80
2019-02-25T10:13:24.986Z,30.50
2019-02-25T10:15:52.354Z,31.20
2019-02-25T10:18:19.639Z,30.40
2019-02-25T10:20:48.142Z,30.30
2019-02-25T10:23:15.562Z,30.00
2019-02-25T10:25:43.146Z,30.10
2019-02-25T10:28:10.555Z,30.00
2019-02-25T10:30:37.968Z,30.20
2019-02-25T10:33:05.470Z,30.00
2019-02-25T10:35:32.736Z,30.00
2019-02-25T10:38:01.133Z,30.10
2019-02-25T10:40:29.455Z,30.20
2019-02-25T10:42:56.810Z,30.20
2019-02-25T10:45:24.161Z,30.10
2019-02-25T10:47:54.398Z,30.20
2019-02-25T10:50:22.111Z,30.00
2019-02-25T10:52:49.681Z,30.00
2019-02-25T10:55:30.158Z,29.90
2019-02-25T10:57:59.777Z,29.90
2019-02-25T11:00:26.986Z,30.00
2019-02-25T11:02:56.436Z,29.70
2019-02-25T11:05:27.283Z,29.30
2019-02-25T11:07:53.401Z,29.30
2019-02-25T11:10:29.121Z,28.80
2019-02-25T11:12:57.709Z,28.80
2019-02-25T11:15:26.322Z,28.40
2019-02-25T11:17:55.915Z,27.80
2019-02-25T11:20:23.119Z,27.50
2019-02-25T11:22:50.865Z,27.60
2019-02-25T11:25:19.396Z,27.20
2019-02-25T11:27:47.761Z,27.30
2019-02-25T11:30:16.574Z,27.00
2019-02-25T11:32:44.698Z,27.50
2019-02-25T11:35:13.043Z,26.80
2019-02-25T11:37:40.580Z,27.20
2019-02-25T11:40:08.994Z,27.30
2019-02-25T11:42:36.380Z,25.80
2019-02-25T11:45:04.995Z,22.90
2019-02-25T11:47:32.544Z,20.80
2019-02-25T11:49:59.973Z,19.40
2019-02-25T11:52:27.414Z,18.10
2019-02-25T11:54:54.836Z,17.80
2019-02-25T11:57:22.185Z,17.70
2019-02-25T11:59:49.917Z,18.80
2019-02-25T12:02:25.163Z,18.40
2019-02-25T12:04:48.423Z,18.50
2019-02-25T12:07:16.627Z,19.50
2019-02-25T12:09:44.055Z,21.10
2019-02-25T12:12:11.747Z,21.90
2019-02-25T12:14:39.143Z,21.70
2019-02-25T12:17:06.596Z,21.00
2019-02-25T12:19:33.987Z,19.40
2019-02-25T12:22:01.450Z,18.70
2019-02-25T12:24:28.949Z,18.00
2019-02-25T12:26:56.306Z,17.20
2019-02-25T12:29:23.774Z,16.90
2019-02-25T12:31:51.151Z,17.20
2019-02-25T12:34:18.685Z,17.20
2019-02-25T12:36:46.035Z,16.90
2019-02-25T12:39:13.475Z,16.80
2019-02-25T12:41:40.858Z,17.60
2019-02-25T12:44:08.235Z,18.30
2019-02-25T12:46:35.675Z,17.90
2019-02-25T12:49:03.073Z,17.00
2019-02-25T12:51:31.706Z,17.00
2019-02-25T12:53:59.575Z,17.60
2019-02-25T12:56:27.307Z,17.90
2019-02-25T12:58:55.327Z,17.80
2019-02-25T13:01:22.921Z,17.50
2019-02-25T13:03:50.473Z,17.80
2019-02-25T13:06:18.034Z,18.90
2019-02-25T13:08:45.638Z,20.30
2019-02-25T13:11:13.350Z,21.00
2019-02-25T13:13:40.931Z,21.60
2019-02-25T13:16:08.699Z,21.00
2019-02-25T13:18:36.188Z,20.30
2019-02-25T13:21:03.566Z,21.00
2019-02-25T13:23:31.078Z,21.10
2019-02-25T13:26:07.252Z,20.80
2019-02-25T13:28:28.591Z,19.70
2019-02-25T13:30:58.845Z,19.50
2019-02-25T13:33:26.931Z,19.10
2019-02-25T13:35:54.692Z,19.80
2019-02-25T13:38:22.687Z,20.00
2019-02-25T13:40:51.231Z,21.20
2019-02-25T13:43:18.561Z,22.40
2019-02-25T13:45:46.032Z,23.10
2019-02-25T13:48:14.700Z,23.90
2019-02-25T13:50:42.380Z,24.50
2019-02-25T13:53:09.734Z,24.70
2019-02-25T13:55:37.359Z,24.30
2019-02-25T13:58:05.231Z,23.80
2019-02-25T14:00:32.704Z,23.00
2019-02-25T14:03:00.315Z,22.70
2019-02-25T14:05:27.749Z,22.30
2019-02-25T14:07:55.110Z,22.80
2019-02-25T14:10:22.645Z,23.90
2019-02-25T14:12:50.114Z,24.80
2019-02-25T14:15:17.934Z,26.00
2019-02-25T14:17:45.421Z,26.90
2019-02-25T14:20:15.151Z,27.40
2019-02-25T14:22:44.611Z,27.80
2019-02-25T14:25:12.711Z,28.10
2019-02-25T14:27:40.250Z,28.50
2019-02-25T14:30:11.813Z,28.40
2019-02-25T14:32:39.384Z,28.60
2019-02-25T14:35:07.858Z,28.70
2019-02-25T14:37:35.629Z,29.20
2019-02-25T14:40:05.627Z,29.60
2019-02-25T14:42:33.705Z,29.40
2019-02-25T14:45:04.594Z,29.50
2019-02-25T14:47:36.824Z,29.50
2019-02-25T14:50:01.379Z,29.90
2019-02-25T14:52:29.289Z,30.00
2019-02-25T14:54:58.231Z,29.90
2019-02-25T14:57:26.886Z,30.00
2019-02-25T14:59:54.851Z,30.20
2019-02-25T15:02:22.287Z,30.10
2019-02-25T15:04:49.725Z,30.20
2019-02-25T15:19:56.740Z,31.90
2019-02-25T15:22:27.914Z,32.00
2019-02-25T15:24:54.623Z,32.00
2019-02-25T18:03:08.262Z,39.30
